sensor_id;sensor_type;location;lat;lon;timestamp;P1;durP1;ratioP1;P2;durP2;ratioP2
67737;SDS011;54534;43.612;1.572;2022-10-16T00:01:13;6.60;;;3.37;;
67737;SDS011;54534;43.612;1.572;2022-10-16T00:03:40;3.93;;;3.23;;
67737;SDS011;54534;43.612;1.572;2022-10-16T00:06:07;3.50;;;3.20;;
67737;SDS011;54534;43.612;1.572;2022-10-16T00:08:34;3.40;;;2.70;;
67737;SDS011;54534;43.612;1.572;2022-10-16T00:11:01;3.57;;;3.00;;
67737;SDS011;54534;43.612;1.572;2022-10-16T00:13:29;5.55;;;3.40;;
67737;SDS011;54534;43.612;1.572;2022-10-16T00:15:56;3.13;;;2.80;;
67737;SDS011;54534;43.612;1.572;2022-10-16T00:18:23;4.33;;;3.03;;
67737;SDS011;54534;43.612;1.572;2022-10-16T00:20:50;3.67;;;3.37;;
67737;SDS011;54534;43.612;1.572;2022-10-16T00:23:15;4.33;;;3.03;;
67737;SDS011;54534;43.612;1.572;2022-10-16T00:25:41;2.90;;;2.70;;
67737;SDS011;54534;43.612;1.572;2022-10-16T00:28:06;3.83;;;3.37;;
67737;SDS011;54534;43.612;1.572;2022-10-16T00:30:31;3.37;;;3.07;;
67737;SDS011;54534;43.612;1.572;2022-10-16T00:32:57;3.87;;;2.73;;
67737;SDS011;54534;43.612;1.572;2022-10-16T00:35:22;4.60;;;3.00;;
67737;SDS011;54534;43.612;1.572;2022-10-16T00:37:48;4.23;;;3.23;;
67737;SDS011;54534;43.612;1.572;2022-10-16T00:40:14;3.10;;;2.77;;
67737;SDS011;54534;43.612;1.572;2022-10-16T00:42:39;3.30;;;3.00;;
67737;SDS011;54534;43.612;1.572;2022-10-16T00:45:05;6.23;;;2.83;;
67737;SDS011;54534;43.612;1.572;2022-10-16T00:50:07;3.53;;;2.93;;
67737;SDS011;54534;43.612;1.572;2022-10-16T00:52:36;3.30;;;3.00;;
67737;SDS011;54534;43.612;1.572;2022-10-16T00:55:07;4.10;;;2.70;;
67737;SDS011;54534;43.612;1.572;2022-10-16T00:57:34;6.40;;;3.23;;
67737;SDS011;54534;43.612;1.572;2022-10-16T00:59:59;3.47;;;3.17;;
67737;SDS011;54534;43.612;1.572;2022-10-16T01:02:26;3.50;;;3.20;;
67737;SDS011;54534;43.612;1.572;2022-10-16T01:04:52;3.77;;;3.43;;
67737;SDS011;54534;43.612;1.572;2022-10-16T01:15:10;6.10;;;3.13;;
67737;SDS011;54534;43.612;1.572;2022-10-16T01:23:20;7.33;;;3.10;;
67737;SDS011;54534;43.612;1.572;2022-10-16T01:31:18;3.47;;;3.17;;
67737;SDS011;54534;43.612;1.572;2022-10-16T01:33:48;3.30;;;2.90;;
67737;SDS011;54534;43.612;1.572;2022-10-16T01:36:23;3.50;;;3.20;;
67737;SDS011;54534;43.612;1.572;2022-10-16T01:38:54;3.77;;;3.47;;
67737;SDS011;54534;43.612;1.572;2022-10-16T01:41:36;3.47;;;3.17;;
67737;SDS011;54534;43.612;1.572;2022-10-16T01:44:09;3.37;;;3.07;;
67737;SDS011;54534;43.612;1.572;2022-10-16T01:46:39;3.50;;;3.20;;
67737;SDS011;54534;43.612;1.572;2022-10-16T01:49:08;6.97;;;3.60;;
67737;SDS011;54534;43.612;1.572;2022-10-16T01:51:35;3.53;;;3.07;;
67737;SDS011;54534;43.612;1.572;2022-10-16T01:54:02;5.33;;;3.60;;
67737;SDS011;54534;43.612;1.572;2022-10-16T01:56:32;3.77;;;3.20;;
67737;SDS011;54534;43.612;1.572;2022-10-16T01:59:04;3.60;;;3.30;;
67737;SDS011;54534;43.612;1.572;2022-10-16T02:01:35;3.33;;;3.03;;
67737;SDS011;54534;43.612;1.572;2022-10-16T02:04:05;4.05;;;3.40;;
67737;SDS011;54534;43.612;1.572;2022-10-16T02:06:36;4.13;;;3.20;;
67737;SDS011;54534;43.612;1.572;2022-10-16T02:09:02;3.70;;;3.20;;
67737;SDS011;54534;43.612;1.572;2022-10-16T02:11:28;5.13;;;3.70;;
67737;SDS011;54534;43.612;1.572;2022-10-16T02:14:11;3.17;;;2.97;;
67737;SDS011;54534;43.612;1.572;2022-10-16T02:16:44;3.30;;;3.00;;
67737;SDS011;54534;43.612;1.572;2022-10-16T02:19:11;6.43;;;3.20;;
67737;SDS011;54534;43.612;1.572;2022-10-16T02:21:41;4.97;;;3.20;;
67737;SDS011;54534;43.612;1.572;2022-10-16T02:24:28;3.80;;;3.13;;
67737;SDS011;54534;43.612;1.572;2022-10-16T02:29:34;3.40;;;3.10;;
67737;SDS011;54534;43.612;1.572;2022-10-16T02:32:06;3.40;;;3.10;;
67737;SDS011;54534;43.612;1.572;2022-10-16T02:34:34;3.47;;;3.13;;
67737;SDS011;54534;43.612;1.572;2022-10-16T02:37:01;4.07;;;3.00;;
67737;SDS011;54534;43.612;1.572;2022-10-16T02:39:29;4.13;;;3.07;;
67737;SDS011;54534;43.612;1.572;2022-10-16T02:41:56;3.80;;;3.40;;
67737;SDS011;54534;43.612;1.572;2022-10-16T02:44:21;3.60;;;3.30;;
67737;SDS011;54534;43.612;1.572;2022-10-16T02:46:46;4.53;;;3.60;;
67737;SDS011;54534;43.612;1.572;2022-10-16T02:49:12;4.70;;;3.53;;
67737;SDS011;54534;43.612;1.572;2022-10-16T02:51:37;4.23;;;3.40;;
67737;SDS011;54534;43.612;1.572;2022-10-16T02:54:03;4.67;;;3.10;;
67737;SDS011;54534;43.612;1.572;2022-10-16T02:56:28;3.80;;;3.23;;
67737;SDS011;54534;43.612;1.572;2022-10-16T02:58:55;4.10;;;3.00;;
67737;SDS011;54534;43.612;1.572;2022-10-16T03:01:20;3.37;;;3.07;;
67737;SDS011;54534;43.612;1.572;2022-10-16T03:03:46;8.80;;;3.30;;
67737;SDS011;54534;43.612;1.572;2022-10-16T03:06:11;4.80;;;3.67;;
67737;SDS011;54534;43.612;1.572;2022-10-16T03:08:37;3.80;;;3.37;;
67737;SDS011;54534;43.612;1.572;2022-10-16T03:11:02;6.90;;;4.00;;
67737;SDS011;54534;43.612;1.572;2022-10-16T03:13:28;7.20;;;3.47;;
67737;SDS011;54534;43.612;1.572;2022-10-16T03:15:53;3.93;;;3.40;;
67737;SDS011;54534;43.612;1.572;2022-10-16T03:18:18;5.57;;;3.40;;
67737;SDS011;54534;43.612;1.572;2022-10-16T03:20:44;6.37;;;3.97;;
67737;SDS011;54534;43.612;1.572;2022-10-16T03:23:09;3.53;;;3.10;;
67737;SDS011;54534;43.612;1.572;2022-10-16T03:25:35;3.70;;;3.40;;
67737;SDS011;54534;43.612;1.572;2022-10-16T03:28:00;5.20;;;3.13;;
67737;SDS011;54534;43.612;1.572;2022-10-16T03:30:26;5.43;;;3.43;;
67737;SDS011;54534;43.612;1.572;2022-10-16T03:32:52;5.33;;;3.13;;
67737;SDS011;54534;43.612;1.572;2022-10-16T03:35:19;3.80;;;3.17;;
67737;SDS011;54534;43.612;1.572;2022-10-16T03:37:45;4.70;;;3.13;;
67737;SDS011;54534;43.612;1.572;2022-10-16T03:40:11;3.53;;;3.20;;
67737;SDS011;54534;43.612;1.572;2022-10-16T03:42:36;4.10;;;3.53;;
67737;SDS011;54534;43.612;1.572;2022-10-16T03:45:02;4.57;;;3.50;;
67737;SDS011;54534;43.612;1.572;2022-10-16T03:47:28;3.80;;;3.40;;
67737;SDS011;54534;43.612;1.572;2022-10-16T03:49:53;4.57;;;3.07;;
67737;SDS011;54534;43.612;1.572;2022-10-16T03:52:19;3.67;;;3.30;;
67737;SDS011;54534;43.612;1.572;2022-10-16T03:54:44;4.30;;;3.30;;
67737;SDS011;54534;43.612;1.572;2022-10-16T03:57:09;3.50;;;3.10;;
67737;SDS011;54534;43.612;1.572;2022-10-16T03:59:36;6.50;;;3.43;;
67737;SDS011;54534;43.612;1.572;2022-10-16T04:02:01;10.57;;;3.83;;
67737;SDS011;54534;43.612;1.572;2022-10-16T04:04:26;4.27;;;3.87;;
67737;SDS011;54534;43.612;1.572;2022-10-16T04:06:52;3.93;;;3.50;;
67737;SDS011;54534;43.612;1.572;2022-10-16T04:09:17;5.83;;;3.60;;
67737;SDS011;54534;43.612;1.572;2022-10-16T04:11:42;3.80;;;3.33;;
67737;SDS011;54534;43.612;1.572;2022-10-16T04:14:08;4.13;;;3.30;;
67737;SDS011;54534;43.612;1.572;2022-10-16T04:16:33;4.07;;;3.40;;
67737;SDS011;54534;43.612;1.572;2022-10-16T04:18:59;6.23;;;3.80;;
67737;SDS011;54534;43.612;1.572;2022-10-16T04:21:24;3.77;;;3.40;;
67737;SDS011;54534;43.612;1.572;2022-10-16T04:23:50;5.60;;;3.80;;
67737;SDS011;54534;43.612;1.572;2022-10-16T04:26:15;4.23;;;3.60;;
67737;SDS011;54534;43.612;1.572;2022-10-16T04:28:40;4.00;;;3.60;;
67737;SDS011;54534;43.612;1.572;2022-10-16T04:31:06;3.50;;;3.20;;
67737;SDS011;54534;43.612;1.572;2022-10-16T04:33:32;4.40;;;3.30;;
67737;SDS011;54534;43.612;1.572;2022-10-16T04:35:58;6.23;;;3.43;;
67737;SDS011;54534;43.612;1.572;2022-10-16T04:38:25;6.33;;;3.60;;
67737;SDS011;54534;43.612;1.572;2022-10-16T04:40:50;4.87;;;3.33;;
67737;SDS011;54534;43.612;1.572;2022-10-16T04:43:16;4.57;;;3.70;;
67737;SDS011;54534;43.612;1.572;2022-10-16T04:45:42;3.50;;;3.17;;
67737;SDS011;54534;43.612;1.572;2022-10-16T04:48:07;4.30;;;3.40;;
67737;SDS011;54534;43.612;1.572;2022-10-16T04:50:32;4.07;;;3.67;;
67737;SDS011;54534;43.612;1.572;2022-10-16T04:52:58;4.10;;;3.70;;
67737;SDS011;54534;43.612;1.572;2022-10-16T04:55:23;5.43;;;3.73;;
67737;SDS011;54534;43.612;1.572;2022-10-16T04:57:48;5.10;;;3.73;;
67737;SDS011;54534;43.612;1.572;2022-10-16T05:00:14;3.87;;;3.10;;
67737;SDS011;54534;43.612;1.572;2022-10-16T05:02:40;6.10;;;3.47;;
67737;SDS011;54534;43.612;1.572;2022-10-16T05:05:05;6.03;;;4.10;;
67737;SDS011;54534;43.612;1.572;2022-10-16T05:07:31;8.83;;;3.60;;
67737;SDS011;54534;43.612;1.572;2022-10-16T05:09:57;4.13;;;3.67;;
67737;SDS011;54534;43.612;1.572;2022-10-16T05:12:22;4.00;;;3.60;;
67737;SDS011;54534;43.612;1.572;2022-10-16T05:14:48;5.50;;;3.80;;
67737;SDS011;54534;43.612;1.572;2022-10-16T05:17:13;5.57;;;3.57;;
67737;SDS011;54534;43.612;1.572;2022-10-16T05:19:39;3.60;;;3.30;;
67737;SDS011;54534;43.612;1.572;2022-10-16T05:22:04;4.10;;;3.70;;
67737;SDS011;54534;43.612;1.572;2022-10-16T05:24:30;5.50;;;3.80;;
67737;SDS011;54534;43.612;1.572;2022-10-16T05:26:55;4.43;;;3.50;;
67737;SDS011;54534;43.612;1.572;2022-10-16T05:29:21;4.53;;;3.57;;
67737;SDS011;54534;43.612;1.572;2022-10-16T05:31:49;4.47;;;3.60;;
67737;SDS011;54534;43.612;1.572;2022-10-16T05:34:16;4.93;;;4.35;;
67737;SDS011;54534;43.612;1.572;2022-10-16T05:36:41;5.20;;;3.50;;
67737;SDS011;54534;43.612;1.572;2022-10-16T05:39:06;3.87;;;3.50;;
67737;SDS011;54534;43.612;1.572;2022-10-16T05:41:32;6.57;;;3.43;;
67737;SDS011;54534;43.612;1.572;2022-10-16T05:43:57;3.97;;;3.30;;
67737;SDS011;54534;43.612;1.572;2022-10-16T05:46:23;3.97;;;3.20;;
67737;SDS011;54534;43.612;1.572;2022-10-16T05:48:48;6.27;;;4.40;;
67737;SDS011;54534;43.612;1.572;2022-10-16T05:51:16;4.70;;;3.60;;
67737;SDS011;54534;43.612;1.572;2022-10-16T05:53:41;6.30;;;3.17;;
67737;SDS011;54534;43.612;1.572;2022-10-16T05:56:07;4.40;;;3.73;;
67737;SDS011;54534;43.612;1.572;2022-10-16T05:58:35;4.80;;;4.10;;
67737;SDS011;54534;43.612;1.572;2022-10-16T06:01:03;6.13;;;3.70;;
67737;SDS011;54534;43.612;1.572;2022-10-16T06:03:30;4.97;;;3.43;;
67737;SDS011;54534;43.612;1.572;2022-10-16T06:05:56;6.00;;;4.30;;
67737;SDS011;54534;43.612;1.572;2022-10-16T06:08:22;5.13;;;3.90;;
67737;SDS011;54534;43.612;1.572;2022-10-16T06:10:48;6.30;;;3.97;;
67737;SDS011;54534;43.612;1.572;2022-10-16T06:13:24;5.50;;;3.77;;
67737;SDS011;54534;43.612;1.572;2022-10-16T06:15:50;3.67;;;3.27;;
67737;SDS011;54534;43.612;1.572;2022-10-16T06:18:15;4.83;;;3.90;;
67737;SDS011;54534;43.612;1.572;2022-10-16T06:20:40;7.10;;;3.77;;
67737;SDS011;54534;43.612;1.572;2022-10-16T06:23:06;8.00;;;3.87;;
67737;SDS011;54534;43.612;1.572;2022-10-16T06:25:31;3.83;;;3.43;;
67737;SDS011;54534;43.612;1.572;2022-10-16T06:27:57;5.47;;;3.73;;
67737;SDS011;54534;43.612;1.572;2022-10-16T06:30:22;5.03;;;3.83;;
67737;SDS011;54534;43.612;1.572;2022-10-16T06:32:47;5.37;;;3.73;;
67737;SDS011;54534;43.612;1.572;2022-10-16T06:35:13;7.00;;;3.97;;
67737;SDS011;54534;43.612;1.572;2022-10-16T06:37:38;5.50;;;3.83;;
67737;SDS011;54534;43.612;1.572;2022-10-16T06:40:04;4.43;;;3.70;;
67737;SDS011;54534;43.612;1.572;2022-10-16T06:42:30;4.67;;;3.60;;
67737;SDS011;54534;43.612;1.572;2022-10-16T06:44:55;7.00;;;4.00;;
67737;SDS011;54534;43.612;1.572;2022-10-16T06:47:21;5.50;;;3.70;;
67737;SDS011;54534;43.612;1.572;2022-10-16T06:49:46;4.83;;;3.53;;
67737;SDS011;54534;43.612;1.572;2022-10-16T06:52:12;6.87;;;4.30;;
67737;SDS011;54534;43.612;1.572;2022-10-16T06:54:37;5.07;;;3.60;;
67737;SDS011;54534;43.612;1.572;2022-10-16T06:57:02;7.13;;;4.57;;
67737;SDS011;54534;43.612;1.572;2022-10-16T06:59:28;3.87;;;3.47;;
67737;SDS011;54534;43.612;1.572;2022-10-16T07:01:53;8.27;;;4.13;;
67737;SDS011;54534;43.612;1.572;2022-10-16T07:04:18;7.87;;;4.10;;
67737;SDS011;54534;43.612;1.572;2022-10-16T07:06:44;6.40;;;3.73;;
67737;SDS011;54534;43.612;1.572;2022-10-16T07:09:10;8.53;;;4.17;;
67737;SDS011;54534;43.612;1.572;2022-10-16T07:11:36;9.60;;;4.37;;
67737;SDS011;54534;43.612;1.572;2022-10-16T07:14:04;9.40;;;4.30;;
67737;SDS011;54534;43.612;1.572;2022-10-16T07:16:30;6.70;;;4.23;;
67737;SDS011;54534;43.612;1.572;2022-10-16T07:18:58;8.93;;;5.00;;
67737;SDS011;54534;43.612;1.572;2022-10-16T07:21:25;8.63;;;5.33;;
67737;SDS011;54534;43.612;1.572;2022-10-16T07:23:54;8.45;;;4.75;;
67737;SDS011;54534;43.612;1.572;2022-10-16T07:26:22;10.87;;;5.73;;
67737;SDS011;54534;43.612;1.572;2022-10-16T07:28:48;6.90;;;5.03;;
67737;SDS011;54534;43.612;1.572;2022-10-16T07:31:15;7.87;;;5.27;;
67737;SDS011;54534;43.612;1.572;2022-10-16T07:33:42;7.20;;;5.80;;
67737;SDS011;54534;43.612;1.572;2022-10-16T07:36:09;7.43;;;5.30;;
67737;SDS011;54534;43.612;1.572;2022-10-16T07:38:35;10.40;;;6.27;;
67737;SDS011;54534;43.612;1.572;2022-10-16T07:41:02;12.93;;;5.80;;
67737;SDS011;54534;43.612;1.572;2022-10-16T07:43:29;7.90;;;5.80;;
67737;SDS011;54534;43.612;1.572;2022-10-16T07:45:55;10.00;;;6.87;;
67737;SDS011;54534;43.612;1.572;2022-10-16T07:48:21;8.03;;;6.00;;
67737;SDS011;54534;43.612;1.572;2022-10-16T07:50:47;7.40;;;5.63;;
67737;SDS011;54534;43.612;1.572;2022-10-16T07:53:13;8.73;;;6.07;;
67737;SDS011;54534;43.612;1.572;2022-10-16T07:55:39;8.63;;;5.67;;
67737;SDS011;54534;43.612;1.572;2022-10-16T07:58:04;16.37;;;6.00;;
67737;SDS011;54534;43.612;1.572;2022-10-16T08:00:30;9.50;;;5.80;;
67737;SDS011;54534;43.612;1.572;2022-10-16T08:02:56;11.10;;;5.80;;
67737;SDS011;54534;43.612;1.572;2022-10-16T08:05:25;12.70;;;6.45;;
67737;SDS011;54534;43.612;1.572;2022-10-16T08:07:55;7.57;;;5.47;;
67737;SDS011;54534;43.612;1.572;2022-10-16T08:10:22;9.60;;;5.60;;
67737;SDS011;54534;43.612;1.572;2022-10-16T08:12:49;9.30;;;6.97;;
67737;SDS011;54534;43.612;1.572;2022-10-16T08:15:15;12.67;;;6.70;;
67737;SDS011;54534;43.612;1.572;2022-10-16T08:17:40;27.07;;;6.97;;
67737;SDS011;54534;43.612;1.572;2022-10-16T08:20:06;11.20;;;6.03;;
67737;SDS011;54534;43.612;1.572;2022-10-16T08:22:32;22.57;;;6.70;;
67737;SDS011;54534;43.612;1.572;2022-10-16T08:24:57;27.10;;;6.87;;
67737;SDS011;54534;43.612;1.572;2022-10-16T08:27:23;30.40;;;6.73;;
67737;SDS011;54534;43.612;1.572;2022-10-16T08:29:48;13.63;;;6.17;;
67737;SDS011;54534;43.612;1.572;2022-10-16T08:32:14;16.90;;;6.73;;
67737;SDS011;54534;43.612;1.572;2022-10-16T08:34:40;15.60;;;6.30;;
67737;SDS011;54534;43.612;1.572;2022-10-16T08:37:05;21.90;;;6.33;;
67737;SDS011;54534;43.612;1.572;2022-10-16T08:39:32;13.53;;;6.70;;
67737;SDS011;54534;43.612;1.572;2022-10-16T08:44:31;14.20;;;6.00;;
67737;SDS011;54534;43.612;1.572;2022-10-16T08:49:33;15.40;;;6.40;;
67737;SDS011;54534;43.612;1.572;2022-10-16T08:51:58;9.33;;;5.53;;
67737;SDS011;54534;43.612;1.572;2022-10-16T08:54:32;12.00;;;5.97;;
67737;SDS011;54534;43.612;1.572;2022-10-16T08:57:01;8.10;;;5.50;;
67737;SDS011;54534;43.612;1.572;2022-10-16T08:59:36;9.80;;;6.37;;
67737;SDS011;54534;43.612;1.572;2022-10-16T09:02:01;13.67;;;6.77;;
67737;SDS011;54534;43.612;1.572;2022-10-16T09:07:44;15.30;;;6.53;;
67737;SDS011;54534;43.612;1.572;2022-10-16T09:13:00;9.63;;;6.53;;
67737;SDS011;54534;43.612;1.572;2022-10-16T09:23:31;23.50;;;7.40;;
67737;SDS011;54534;43.612;1.572;2022-10-16T09:26:00;12.83;;;6.17;;
67737;SDS011;54534;43.612;1.572;2022-10-16T09:28:27;12.03;;;6.20;;
67737;SDS011;54534;43.612;1.572;2022-10-16T09:30:52;11.70;;;5.97;;
67737;SDS011;54534;43.612;1.572;2022-10-16T09:33:20;17.13;;;7.30;;
67737;SDS011;54534;43.612;1.572;2022-10-16T09:35:49;9.50;;;5.43;;
67737;SDS011;54534;43.612;1.572;2022-10-16T09:38:29;15.70;;;6.50;;
67737;SDS011;54534;43.612;1.572;2022-10-16T09:40:57;18.20;;;6.70;;
67737;SDS011;54534;43.612;1.572;2022-10-16T09:43:30;12.70;;;6.00;;
67737;SDS011;54534;43.612;1.572;2022-10-16T09:48:37;16.13;;;6.00;;
67737;SDS011;54534;43.612;1.572;2022-10-16T09:51:05;11.13;;;5.83;;
67737;SDS011;54534;43.612;1.572;2022-10-16T09:53:44;18.47;;;7.60;;
67737;SDS011;54534;43.612;1.572;2022-10-16T09:56:20;10.47;;;6.50;;
67737;SDS011;54534;43.612;1.572;2022-10-16T09:58:50;17.43;;;6.30;;
67737;SDS011;54534;43.612;1.572;2022-10-16T10:01:20;14.03;;;6.07;;
67737;SDS011;54534;43.612;1.572;2022-10-16T10:03:48;11.90;;;6.27;;
67737;SDS011;54534;43.612;1.572;2022-10-16T10:06:25;14.50;;;5.47;;
67737;SDS011;54534;43.612;1.572;2022-10-16T10:09:03;9.37;;;5.27;;
67737;SDS011;54534;43.612;1.572;2022-10-16T10:11:52;7.93;;;4.80;;
67737;SDS011;54534;43.612;1.572;2022-10-16T10:16:46;11.80;;;5.27;;
67737;SDS011;54534;43.612;1.572;2022-10-16T10:19:20;7.17;;;4.73;;
67737;SDS011;54534;43.612;1.572;2022-10-16T10:21:47;10.17;;;5.00;;
67737;SDS011;54534;43.612;1.572;2022-10-16T10:24:14;15.17;;;4.70;;
67737;SDS011;54534;43.612;1.572;2022-10-16T10:26:45;9.70;;;4.90;;
67737;SDS011;54534;43.612;1.572;2022-10-16T10:29:21;8.23;;;4.80;;
67737;SDS011;54534;43.612;1.572;2022-10-16T10:32:03;9.37;;;4.93;;
67737;SDS011;54534;43.612;1.572;2022-10-16T10:34:46;11.10;;;4.50;;
67737;SDS011;54534;43.612;1.572;2022-10-16T10:37:32;11.53;;;4.60;;
67737;SDS011;54534;43.612;1.572;2022-10-16T10:40:30;7.37;;;4.40;;
67737;SDS011;54534;43.612;1.572;2022-10-16T10:45:54;5.73;;;4.37;;
67737;SDS011;54534;43.612;1.572;2022-10-16T10:51:11;7.97;;;4.50;;
67737;SDS011;54534;43.612;1.572;2022-10-16T11:08:16;15.97;;;5.10;;
67737;SDS011;54534;43.612;1.572;2022-10-16T11:11:00;18.03;;;5.57;;
67737;SDS011;54534;43.612;1.572;2022-10-16T11:16:16;15.43;;;4.77;;
67737;SDS011;54534;43.612;1.572;2022-10-16T11:18:52;17.37;;;4.67;;
67737;SDS011;54534;43.612;1.572;2022-10-16T11:24:49;13.53;;;4.67;;
67737;SDS011;54534;43.612;1.572;2022-10-16T11:27:22;11.17;;;5.33;;
67737;SDS011;54534;43.612;1.572;2022-10-16T11:29:57;12.40;;;4.93;;
67737;SDS011;54534;43.612;1.572;2022-10-16T11:32:28;19.83;;;5.10;;
67737;SDS011;54534;43.612;1.572;2022-10-16T11:35:03;7.40;;;4.00;;
67737;SDS011;54534;43.612;1.572;2022-10-16T11:37:41;6.73;;;4.00;;
67737;SDS011;54534;43.612;1.572;2022-10-16T11:42:54;10.90;;;4.40;;
67737;SDS011;54534;43.612;1.572;2022-10-16T11:45:33;11.50;;;5.20;;
67737;SDS011;54534;43.612;1.572;2022-10-16T11:48:23;9.83;;;4.40;;
67737;SDS011;54534;43.612;1.572;2022-10-16T11:51:41;13.93;;;5.23;;
67737;SDS011;54534;43.612;1.572;2022-10-16T11:54:07;10.17;;;4.87;;
67737;SDS011;54534;43.612;1.572;2022-10-16T11:56:50;15.00;;;5.93;;
67737;SDS011;54534;43.612;1.572;2022-10-16T11:59:25;16.57;;;6.63;;
67737;SDS011;54534;43.612;1.572;2022-10-16T12:02:25;44.67;;;15.20;;
67737;SDS011;54534;43.612;1.572;2022-10-16T12:05:01;146.27;;;46.23;;
67737;SDS011;54534;43.612;1.572;2022-10-16T12:07:36;167.63;;;56.77;;
67737;SDS011;54534;43.612;1.572;2022-10-16T12:10:26;197.93;;;73.77;;
67737;SDS011;54534;43.612;1.572;2022-10-16T12:12:53;176.40;;;66.83;;
67737;SDS011;54534;43.612;1.572;2022-10-16T12:17:51;150.80;;;64.50;;
67737;SDS011;54534;43.612;1.572;2022-10-16T12:22:49;132.83;;;58.03;;
67737;SDS011;54534;43.612;1.572;2022-10-16T12:30:22;101.53;;;42.60;;
67737;SDS011;54534;43.612;1.572;2022-10-16T12:32:56;99.10;;;39.53;;
67737;SDS011;54534;43.612;1.572;2022-10-16T12:35:27;87.67;;;35.73;;
67737;SDS011;54534;43.612;1.572;2022-10-16T12:41:08;85.43;;;33.43;;
67737;SDS011;54534;43.612;1.572;2022-10-16T12:43:38;81.83;;;33.47;;
67737;SDS011;54534;43.612;1.572;2022-10-16T12:48:39;59.27;;;26.27;;
67737;SDS011;54534;43.612;1.572;2022-10-16T12:51:19;33.53;;;14.80;;
67737;SDS011;54534;43.612;1.572;2022-10-16T12:53:46;14.27;;;7.37;;
67737;SDS011;54534;43.612;1.572;2022-10-16T12:56:51;12.80;;;4.47;;
67737;SDS011;54534;43.612;1.572;2022-10-16T12:59:33;8.97;;;3.57;;
67737;SDS011;54534;43.612;1.572;2022-10-16T13:10:26;9.93;;;2.90;;
67737;SDS011;54534;43.612;1.572;2022-10-16T13:29:15;7.70;;;2.43;;
67737;SDS011;54534;43.612;1.572;2022-10-16T13:31:41;6.13;;;2.50;;
67737;SDS011;54534;43.612;1.572;2022-10-16T13:34:11;6.50;;;2.23;;
67737;SDS011;54534;43.612;1.572;2022-10-16T13:36:43;9.70;;;2.80;;
67737;SDS011;54534;43.612;1.572;2022-10-16T13:39:14;12.40;;;2.70;;
67737;SDS011;54534;43.612;1.572;2022-10-16T13:41:46;20.87;;;3.43;;
67737;SDS011;54534;43.612;1.572;2022-10-16T13:44:23;10.07;;;2.50;;
67737;SDS011;54534;43.612;1.572;2022-10-16T13:46:57;11.10;;;2.50;;
67737;SDS011;54534;43.612;1.572;2022-10-16T13:49:24;14.97;;;2.63;;
67737;SDS011;54534;43.612;1.572;2022-10-16T13:51:56;14.47;;;3.07;;
67737;SDS011;54534;43.612;1.572;2022-10-16T13:54:23;9.57;;;2.33;;
67737;SDS011;54534;43.612;1.572;2022-10-16T13:56:49;9.43;;;2.50;;
67737;SDS011;54534;43.612;1.572;2022-10-16T13:59:36;13.00;;;3.90;;
67737;SDS011;54534;43.612;1.572;2022-10-16T14:02:05;13.87;;;2.87;;
67737;SDS011;54534;43.612;1.572;2022-10-16T14:04:47;15.50;;;2.90;;
67737;SDS011;54534;43.612;1.572;2022-10-16T14:07:14;6.83;;;2.70;;
67737;SDS011;54534;43.612;1.572;2022-10-16T14:09:50;8.10;;;3.20;;
67737;SDS011;54534;43.612;1.572;2022-10-16T14:12:17;7.93;;;2.33;;
67737;SDS011;54534;43.612;1.572;2022-10-16T14:14:43;9.87;;;3.53;;
67737;SDS011;54534;43.612;1.572;2022-10-16T14:17:15;10.23;;;2.40;;
67737;SDS011;54534;43.612;1.572;2022-10-16T14:19:46;6.43;;;2.63;;
67737;SDS011;54534;43.612;1.572;2022-10-16T14:22:21;7.03;;;2.93;;
67737;SDS011;54534;43.612;1.572;2022-10-16T14:28:14;7.90;;;2.60;;
67737;SDS011;54534;43.612;1.572;2022-10-16T14:33:24;5.20;;;1.90;;
67737;SDS011;54534;43.612;1.572;2022-10-16T14:38:24;4.17;;;1.93;;
67737;SDS011;54534;43.612;1.572;2022-10-16T14:40:50;5.53;;;2.07;;
67737;SDS011;54534;43.612;1.572;2022-10-16T14:43:22;7.77;;;2.70;;
67737;SDS011;54534;43.612;1.572;2022-10-16T14:46:02;6.37;;;2.27;;
67737;SDS011;54534;43.612;1.572;2022-10-16T14:48:31;6.33;;;2.53;;
67737;SDS011;54534;43.612;1.572;2022-10-16T14:50:57;4.17;;;2.13;;
67737;SDS011;54534;43.612;1.572;2022-10-16T14:53:22;6.23;;;2.40;;
67737;SDS011;54534;43.612;1.572;2022-10-16T14:55:48;3.53;;;2.47;;
67737;SDS011;54534;43.612;1.572;2022-10-16T14:58:15;3.87;;;1.97;;
67737;SDS011;54534;43.612;1.572;2022-10-16T15:00:43;6.13;;;2.37;;
67737;SDS011;54534;43.612;1.572;2022-10-16T15:03:08;5.70;;;2.47;;
67737;SDS011;54534;43.612;1.572;2022-10-16T15:05:34;4.00;;;2.10;;
67737;SDS011;54534;43.612;1.572;2022-10-16T15:08:00;3.20;;;1.83;;
67737;SDS011;54534;43.612;1.572;2022-10-16T15:10:25;4.20;;;2.33;;
67737;SDS011;54534;43.612;1.572;2022-10-16T15:12:53;4.47;;;2.07;;
67737;SDS011;54534;43.612;1.572;2022-10-16T15:18:06;5.03;;;2.03;;
67737;SDS011;54534;43.612;1.572;2022-10-16T15:20:36;3.80;;;1.80;;
67737;SDS011;54534;43.612;1.572;2022-10-16T15:23:04;4.87;;;2.23;;
67737;SDS011;54534;43.612;1.572;2022-10-16T15:25:38;3.80;;;1.80;;
67737;SDS011;54534;43.612;1.572;2022-10-16T15:28:11;6.23;;;1.90;;
67737;SDS011;54534;43.612;1.572;2022-10-16T15:30:38;5.50;;;2.43;;
67737;SDS011;54534;43.612;1.572;2022-10-16T15:33:04;4.23;;;2.30;;
67737;SDS011;54534;43.612;1.572;2022-10-16T15:35:34;4.50;;;2.03;;
67737;SDS011;54534;43.612;1.572;2022-10-16T15:37:59;5.53;;;2.30;;
67737;SDS011;54534;43.612;1.572;2022-10-16T15:40:25;6.93;;;2.57;;
67737;SDS011;54534;43.612;1.572;2022-10-16T15:42:50;8.60;;;2.80;;
67737;SDS011;54534;43.612;1.572;2022-10-16T15:45:16;7.53;;;2.60;;
67737;SDS011;54534;43.612;1.572;2022-10-16T15:47:42;7.03;;;2.83;;
67737;SDS011;54534;43.612;1.572;2022-10-16T15:50:14;9.37;;;3.03;;
67737;SDS011;54534;43.612;1.572;2022-10-16T15:52:40;7.70;;;2.97;;
67737;SDS011;54534;43.612;1.572;2022-10-16T15:55:09;13.17;;;2.57;;
67737;SDS011;54534;43.612;1.572;2022-10-16T15:57:36;15.37;;;3.00;;
67737;SDS011;54534;43.612;1.572;2022-10-16T16:00:07;16.30;;;3.27;;
67737;SDS011;54534;43.612;1.572;2022-10-16T16:04:58;11.97;;;3.30;;
67737;SDS011;54534;43.612;1.572;2022-10-16T16:07:24;10.63;;;3.07;;
67737;SDS011;54534;43.612;1.572;2022-10-16T16:09:49;7.03;;;3.07;;
67737;SDS011;54534;43.612;1.572;2022-10-16T16:12:14;12.03;;;2.80;;
67737;SDS011;54534;43.612;1.572;2022-10-16T16:14:40;13.23;;;3.53;;
67737;SDS011;54534;43.612;1.572;2022-10-16T16:17:05;8.67;;;2.70;;
67737;SDS011;54534;43.612;1.572;2022-10-16T16:19:31;9.73;;;2.70;;
67737;SDS011;54534;43.612;1.572;2022-10-16T16:21:57;8.03;;;2.73;;
67737;SDS011;54534;43.612;1.572;2022-10-16T16:24:23;12.53;;;3.13;;
67737;SDS011;54534;43.612;1.572;2022-10-16T16:26:48;9.53;;;2.77;;
67737;SDS011;54534;43.612;1.572;2022-10-16T16:29:14;6.30;;;3.33;;
67737;SDS011;54534;43.612;1.572;2022-10-16T16:31:40;8.87;;;2.77;;
67737;SDS011;54534;43.612;1.572;2022-10-16T16:34:06;9.23;;;3.30;;
67737;SDS011;54534;43.612;1.572;2022-10-16T16:36:33;11.03;;;3.17;;
67737;SDS011;54534;43.612;1.572;2022-10-16T16:38:58;14.80;;;3.77;;
67737;SDS011;54534;43.612;1.572;2022-10-16T16:41:25;12.50;;;3.20;;
67737;SDS011;54534;43.612;1.572;2022-10-16T16:43:52;17.90;;;3.93;;
67737;SDS011;54534;43.612;1.572;2022-10-16T16:46:18;9.37;;;2.83;;
67737;SDS011;54534;43.612;1.572;2022-10-16T16:48:45;10.33;;;2.63;;
67737;SDS011;54534;43.612;1.572;2022-10-16T16:51:15;9.87;;;3.00;;
67737;SDS011;54534;43.612;1.572;2022-10-16T16:53:46;8.23;;;3.00;;
67737;SDS011;54534;43.612;1.572;2022-10-16T16:56:14;12.90;;;2.80;;
67737;SDS011;54534;43.612;1.572;2022-10-16T16:58:40;8.77;;;3.33;;
67737;SDS011;54534;43.612;1.572;2022-10-16T17:01:05;10.60;;;3.60;;
67737;SDS011;54534;43.612;1.572;2022-10-16T17:03:32;12.20;;;3.37;;